YWSG weather

Watts Bridge Airport
Queensland, Australia

Public forecast

Using degrees Celsius for public forecast. Weather courtesy of forecast.io.

Closest aviation weather report (METAR) to Watts Bridge Airport

Closest report is RAAF Base Amberley, 35.2 nm (65.2 km) SSE. Retrieved 2019/10/14 15:30 UTC (0 seconds ago):

YAMB 141530Z AUTO 10001KT 9999 // NCD 15/14 Q1013

Closest aviation forecast (TAF) to Watts Bridge Airport

Closest forecast is RAAF Base Amberley, 35.2 nm (65.2 km) SSE. Retrieved 2019/10/14 12:00 UTC (3 hours ago):

TAF YAMB 141114Z 1412/1506 08006KT 9999 SCT030 FM141600 07005KT 9999 SCT010 BKN025 FM142300 06010KT 9999 SCT035 TEMPO 1415/1422 9999 BKN010